sensor_id;sensor_type;location;lat;lon;timestamp;P1;durP1;ratioP1;P2;durP2;ratioP2
21639;SDS011;10981;45.462;10.974;2023-03-01T00:01:32;26.55;;;15.02;;
21639;SDS011;10981;45.462;10.974;2023-03-01T00:04:00;22.67;;;12.40;;
21639;SDS011;10981;45.462;10.974;2023-03-01T00:06:28;25.77;;;13.82;;
21639;SDS011;10981;45.462;10.974;2023-03-01T00:08:56;25.02;;;13.32;;
21639;SDS011;10981;45.462;10.974;2023-03-01T00:11:28;25.05;;;13.23;;
21639;SDS011;10981;45.462;10.974;2023-03-01T00:13:57;26.48;;;12.60;;
21639;SDS011;10981;45.462;10.974;2023-03-01T00:16:26;22.98;;;12.90;;
21639;SDS011;10981;45.462;10.974;2023-03-01T00:18:55;24.60;;;13.75;;
21639;SDS011;10981;45.462;10.974;2023-03-01T00:21:23;24.50;;;15.13;;
21639;SDS011;10981;45.462;10.974;2023-03-01T00:23:51;29.15;;;16.05;;
21639;SDS011;10981;45.462;10.974;2023-03-01T00:26:20;26.02;;;15.70;;
21639;SDS011;10981;45.462;10.974;2023-03-01T00:28:48;31.13;;;15.82;;
21639;SDS011;10981;45.462;10.974;2023-03-01T00:31:17;34.58;;;18.13;;
21639;SDS011;10981;45.462;10.974;2023-03-01T00:33:46;28.95;;;16.88;;
21639;SDS011;10981;45.462;10.974;2023-03-01T00:36:15;33.53;;;17.20;;
21639;SDS011;10981;45.462;10.974;2023-03-01T00:38:44;31.48;;;16.83;;
21639;SDS011;10981;45.462;10.974;2023-03-01T00:41:13;36.03;;;17.08;;
21639;SDS011;10981;45.462;10.974;2023-03-01T00:43:41;30.50;;;16.58;;
21639;SDS011;10981;45.462;10.974;2023-03-01T00:46:10;29.55;;;16.67;;
21639;SDS011;10981;45.462;10.974;2023-03-01T00:48:38;26.88;;;15.65;;
21639;SDS011;10981;45.462;10.974;2023-03-01T00:53:37;31.30;;;16.50;;
21639;SDS011;10981;45.462;10.974;2023-03-01T00:56:06;30.70;;;16.00;;
21639;SDS011;10981;45.462;10.974;2023-03-01T00:58:34;30.27;;;16.27;;
21639;SDS011;10981;45.462;10.974;2023-03-01T01:01:36;32.10;;;15.13;;
21639;SDS011;10981;45.462;10.974;2023-03-01T01:03:58;28.77;;;15.75;;
21639;SDS011;10981;45.462;10.974;2023-03-01T01:06:28;28.38;;;14.88;;
21639;SDS011;10981;45.462;10.974;2023-03-01T01:08:57;29.95;;;15.90;;
21639;SDS011;10981;45.462;10.974;2023-03-01T01:11:27;25.15;;;13.65;;
21639;SDS011;10981;45.462;10.974;2023-03-01T01:13:55;27.73;;;15.32;;
21639;SDS011;10981;45.462;10.974;2023-03-01T01:16:24;26.38;;;14.57;;
21639;SDS011;10981;45.462;10.974;2023-03-01T01:18:52;25.20;;;14.00;;
21639;SDS011;10981;45.462;10.974;2023-03-01T01:21:21;25.20;;;14.93;;
21639;SDS011;10981;45.462;10.974;2023-03-01T01:23:50;28.65;;;14.65;;
21639;SDS011;10981;45.462;10.974;2023-03-01T01:26:19;29.05;;;15.88;;
21639;SDS011;10981;45.462;10.974;2023-03-01T01:28:49;29.98;;;16.00;;
21639;SDS011;10981;45.462;10.974;2023-03-01T01:31:17;25.73;;;15.57;;
21639;SDS011;10981;45.462;10.974;2023-03-01T01:33:46;31.65;;;15.82;;
21639;SDS011;10981;45.462;10.974;2023-03-01T01:36:13;27.55;;;15.38;;
21639;SDS011;10981;45.462;10.974;2023-03-01T01:38:41;24.38;;;13.98;;
21639;SDS011;10981;45.462;10.974;2023-03-01T01:41:10;25.73;;;13.27;;
21639;SDS011;10981;45.462;10.974;2023-03-01T01:43:45;25.08;;;14.23;;
21639;SDS011;10981;45.462;10.974;2023-03-01T01:48:46;23.33;;;13.55;;
21639;SDS011;10981;45.462;10.974;2023-03-01T01:51:19;28.27;;;14.27;;
21639;SDS011;10981;45.462;10.974;2023-03-01T01:53:50;24.60;;;13.63;;
21639;SDS011;10981;45.462;10.974;2023-03-01T01:56:18;28.13;;;14.55;;
21639;SDS011;10981;45.462;10.974;2023-03-01T01:58:47;30.25;;;14.55;;
21639;SDS011;10981;45.462;10.974;2023-03-01T02:01:15;27.48;;;14.43;;
21639;SDS011;10981;45.462;10.974;2023-03-01T02:03:44;25.05;;;13.32;;
21639;SDS011;10981;45.462;10.974;2023-03-01T02:06:26;29.80;;;14.05;;
21639;SDS011;10981;45.462;10.974;2023-03-01T02:09:04;28.98;;;14.88;;
21639;SDS011;10981;45.462;10.974;2023-03-01T02:11:34;30.95;;;15.40;;
21639;SDS011;10981;45.462;10.974;2023-03-01T02:14:04;27.42;;;14.98;;
21639;SDS011;10981;45.462;10.974;2023-03-01T02:16:32;29.80;;;15.68;;
21639;SDS011;10981;45.462;10.974;2023-03-01T02:19:01;28.65;;;14.45;;
21639;SDS011;10981;45.462;10.974;2023-03-01T02:24:01;29.13;;;15.23;;
21639;SDS011;10981;45.462;10.974;2023-03-01T02:26:52;28.13;;;14.75;;
21639;SDS011;10981;45.462;10.974;2023-03-01T02:29:25;30.38;;;15.35;;
21639;SDS011;10981;45.462;10.974;2023-03-01T02:31:54;27.93;;;15.20;;
21639;SDS011;10981;45.462;10.974;2023-03-01T02:34:25;28.33;;;15.35;;
21639;SDS011;10981;45.462;10.974;2023-03-01T02:36:55;26.00;;;14.63;;
21639;SDS011;10981;45.462;10.974;2023-03-01T02:39:25;28.88;;;15.93;;
21639;SDS011;10981;45.462;10.974;2023-03-01T02:41:54;23.33;;;14.45;;
21639;SDS011;10981;45.462;10.974;2023-03-01T02:44:23;25.75;;;13.98;;
21639;SDS011;10981;45.462;10.974;2023-03-01T02:46:52;31.00;;;16.15;;
21639;SDS011;10981;45.462;10.974;2023-03-01T02:49:25;26.65;;;15.13;;
21639;SDS011;10981;45.462;10.974;2023-03-01T02:54:25;29.58;;;16.33;;
21639;SDS011;10981;45.462;10.974;2023-03-01T02:56:55;32.15;;;15.18;;
21639;SDS011;10981;45.462;10.974;2023-03-01T02:59:24;27.55;;;15.73;;
21639;SDS011;10981;45.462;10.974;2023-03-01T03:01:54;29.55;;;15.10;;
21639;SDS011;10981;45.462;10.974;2023-03-01T03:04:22;29.00;;;14.73;;
21639;SDS011;10981;45.462;10.974;2023-03-01T03:06:50;30.27;;;14.80;;
21639;SDS011;10981;45.462;10.974;2023-03-01T03:09:18;28.55;;;15.00;;
21639;SDS011;10981;45.462;10.974;2023-03-01T03:11:46;27.95;;;15.23;;
21639;SDS011;10981;45.462;10.974;2023-03-01T03:14:15;25.83;;;14.20;;
21639;SDS011;10981;45.462;10.974;2023-03-01T03:16:47;28.30;;;15.50;;
21639;SDS011;10981;45.462;10.974;2023-03-01T03:19:17;26.65;;;14.20;;
21639;SDS011;10981;45.462;10.974;2023-03-01T03:21:45;26.05;;;14.40;;
21639;SDS011;10981;45.462;10.974;2023-03-01T03:24:13;26.42;;;15.00;;
21639;SDS011;10981;45.462;10.974;2023-03-01T03:26:41;29.75;;;15.10;;
21639;SDS011;10981;45.462;10.974;2023-03-01T03:29:09;25.85;;;13.93;;
21639;SDS011;10981;45.462;10.974;2023-03-01T03:31:36;27.08;;;14.10;;
21639;SDS011;10981;45.462;10.974;2023-03-01T03:34:04;28.33;;;15.40;;
21639;SDS011;10981;45.462;10.974;2023-03-01T03:36:32;32.15;;;16.55;;
21639;SDS011;10981;45.462;10.974;2023-03-01T03:39:00;29.95;;;15.93;;
21639;SDS011;10981;45.462;10.974;2023-03-01T03:41:28;26.77;;;14.90;;
21639;SDS011;10981;45.462;10.974;2023-03-01T03:43:56;28.75;;;15.52;;
21639;SDS011;10981;45.462;10.974;2023-03-01T03:46:23;26.13;;;14.65;;
21639;SDS011;10981;45.462;10.974;2023-03-01T03:48:52;26.50;;;14.13;;
21639;SDS011;10981;45.462;10.974;2023-03-01T03:51:19;29.13;;;15.60;;
21639;SDS011;10981;45.462;10.974;2023-03-01T03:53:49;28.98;;;14.82;;
21639;SDS011;10981;45.462;10.974;2023-03-01T03:56:17;27.38;;;14.02;;
21639;SDS011;10981;45.462;10.974;2023-03-01T03:58:45;26.02;;;13.52;;
21639;SDS011;10981;45.462;10.974;2023-03-01T04:01:13;28.95;;;13.95;;
21639;SDS011;10981;45.462;10.974;2023-03-01T04:03:40;25.77;;;15.38;;
21639;SDS011;10981;45.462;10.974;2023-03-01T04:06:14;27.65;;;13.93;;
21639;SDS011;10981;45.462;10.974;2023-03-01T04:08:42;26.30;;;14.07;;
21639;SDS011;10981;45.462;10.974;2023-03-01T04:11:10;25.33;;;14.60;;
21639;SDS011;10981;45.462;10.974;2023-03-01T04:13:55;25.80;;;14.13;;
21639;SDS011;10981;45.462;10.974;2023-03-01T04:16:24;27.58;;;15.63;;
21639;SDS011;10981;45.462;10.974;2023-03-01T04:18:52;30.85;;;15.20;;
21639;SDS011;10981;45.462;10.974;2023-03-01T04:21:20;33.15;;;16.58;;
21639;SDS011;10981;45.462;10.974;2023-03-01T04:23:48;29.58;;;16.55;;
21639;SDS011;10981;45.462;10.974;2023-03-01T04:26:19;30.38;;;16.75;;
21639;SDS011;10981;45.462;10.974;2023-03-01T04:28:47;31.98;;;17.67;;
21639;SDS011;10981;45.462;10.974;2023-03-01T04:31:17;37.67;;;18.27;;
21639;SDS011;10981;45.462;10.974;2023-03-01T04:33:52;35.03;;;17.65;;
21639;SDS011;10981;45.462;10.974;2023-03-01T04:36:21;34.20;;;18.77;;
21639;SDS011;10981;45.462;10.974;2023-03-01T04:38:50;30.02;;;17.42;;
21639;SDS011;10981;45.462;10.974;2023-03-01T04:41:19;35.47;;;19.00;;
21639;SDS011;10981;45.462;10.974;2023-03-01T04:43:48;34.88;;;17.95;;
21639;SDS011;10981;45.462;10.974;2023-03-01T04:46:17;30.33;;;17.50;;
21639;SDS011;10981;45.462;10.974;2023-03-01T04:48:45;34.03;;;17.88;;
21639;SDS011;10981;45.462;10.974;2023-03-01T04:51:14;33.83;;;16.10;;
21639;SDS011;10981;45.462;10.974;2023-03-01T04:53:42;32.22;;;16.45;;
21639;SDS011;10981;45.462;10.974;2023-03-01T04:56:11;33.20;;;16.52;;
21639;SDS011;10981;45.462;10.974;2023-03-01T04:58:40;30.92;;;16.58;;
21639;SDS011;10981;45.462;10.974;2023-03-01T05:01:09;30.30;;;16.58;;
21639;SDS011;10981;45.462;10.974;2023-03-01T05:03:46;34.75;;;17.20;;
21639;SDS011;10981;45.462;10.974;2023-03-01T05:06:14;32.05;;;16.58;;
21639;SDS011;10981;45.462;10.974;2023-03-01T05:08:42;35.95;;;18.05;;
21639;SDS011;10981;45.462;10.974;2023-03-01T05:11:11;34.13;;;18.65;;
21639;SDS011;10981;45.462;10.974;2023-03-01T05:13:39;30.08;;;17.27;;
21639;SDS011;10981;45.462;10.974;2023-03-01T05:16:08;36.70;;;17.38;;
21639;SDS011;10981;45.462;10.974;2023-03-01T05:18:39;27.73;;;16.45;;
21639;SDS011;10981;45.462;10.974;2023-03-01T05:21:12;31.13;;;17.67;;
21639;SDS011;10981;45.462;10.974;2023-03-01T05:23:43;32.33;;;18.40;;
21639;SDS011;10981;45.462;10.974;2023-03-01T05:26:11;30.40;;;17.30;;
21639;SDS011;10981;45.462;10.974;2023-03-01T05:28:54;31.67;;;18.37;;
21639;SDS011;10981;45.462;10.974;2023-03-01T05:31:25;39.20;;;19.13;;
21639;SDS011;10981;45.462;10.974;2023-03-01T05:33:53;36.90;;;17.95;;
21639;SDS011;10981;45.462;10.974;2023-03-01T05:36:21;31.80;;;17.42;;
21639;SDS011;10981;45.462;10.974;2023-03-01T05:38:49;40.50;;;18.58;;
21639;SDS011;10981;45.462;10.974;2023-03-01T05:41:17;36.22;;;18.83;;
21639;SDS011;10981;45.462;10.974;2023-03-01T05:43:45;37.63;;;19.52;;
21639;SDS011;10981;45.462;10.974;2023-03-01T05:46:13;38.00;;;19.02;;
21639;SDS011;10981;45.462;10.974;2023-03-01T05:48:42;35.78;;;18.80;;
21639;SDS011;10981;45.462;10.974;2023-03-01T05:51:10;35.40;;;19.58;;
21639;SDS011;10981;45.462;10.974;2023-03-01T05:53:38;46.83;;;21.38;;
21639;SDS011;10981;45.462;10.974;2023-03-01T05:56:06;41.05;;;21.55;;
21639;SDS011;10981;45.462;10.974;2023-03-01T05:58:34;40.05;;;21.02;;
21639;SDS011;10981;45.462;10.974;2023-03-01T06:01:02;40.72;;;19.95;;
21639;SDS011;10981;45.462;10.974;2023-03-01T06:03:30;35.72;;;17.85;;
21639;SDS011;10981;45.462;10.974;2023-03-01T06:05:58;37.92;;;18.85;;
21639;SDS011;10981;45.462;10.974;2023-03-01T06:08:26;39.50;;;19.83;;
21639;SDS011;10981;45.462;10.974;2023-03-01T06:10:54;40.80;;;20.88;;
21639;SDS011;10981;45.462;10.974;2023-03-01T06:13:22;34.58;;;19.00;;
21639;SDS011;10981;45.462;10.974;2023-03-01T06:15:50;37.25;;;19.50;;
21639;SDS011;10981;45.462;10.974;2023-03-01T06:18:19;37.67;;;20.00;;
21639;SDS011;10981;45.462;10.974;2023-03-01T06:20:52;41.70;;;20.35;;
21639;SDS011;10981;45.462;10.974;2023-03-01T06:23:20;43.53;;;20.33;;
21639;SDS011;10981;45.462;10.974;2023-03-01T06:25:48;44.25;;;20.80;;
21639;SDS011;10981;45.462;10.974;2023-03-01T06:28:16;38.83;;;19.73;;
21639;SDS011;10981;45.462;10.974;2023-03-01T06:30:44;41.97;;;21.25;;
21639;SDS011;10981;45.462;10.974;2023-03-01T06:33:12;44.72;;;21.35;;
21639;SDS011;10981;45.462;10.974;2023-03-01T06:35:40;39.33;;;21.30;;
21639;SDS011;10981;45.462;10.974;2023-03-01T06:38:08;43.80;;;21.92;;
21639;SDS011;10981;45.462;10.974;2023-03-01T06:40:36;43.15;;;20.73;;
21639;SDS011;10981;45.462;10.974;2023-03-01T06:43:04;43.78;;;20.42;;
21639;SDS011;10981;45.462;10.974;2023-03-01T06:45:33;40.95;;;19.88;;
21639;SDS011;10981;45.462;10.974;2023-03-01T06:48:04;46.42;;;21.77;;
21639;SDS011;10981;45.462;10.974;2023-03-01T06:50:33;46.15;;;21.58;;
21639;SDS011;10981;45.462;10.974;2023-03-01T06:53:02;38.92;;;20.83;;
21639;SDS011;10981;45.462;10.974;2023-03-01T06:55:30;42.47;;;22.70;;
21639;SDS011;10981;45.462;10.974;2023-03-01T06:57:58;45.60;;;21.60;;
21639;SDS011;10981;45.462;10.974;2023-03-01T07:00:27;38.17;;;20.08;;
21639;SDS011;10981;45.462;10.974;2023-03-01T07:02:56;48.92;;;23.25;;
21639;SDS011;10981;45.462;10.974;2023-03-01T07:05:25;47.67;;;22.92;;
21639;SDS011;10981;45.462;10.974;2023-03-01T07:07:53;44.28;;;23.92;;
21639;SDS011;10981;45.462;10.974;2023-03-01T07:10:23;49.63;;;23.08;;
21639;SDS011;10981;45.462;10.974;2023-03-01T07:12:54;46.40;;;22.60;;
21639;SDS011;10981;45.462;10.974;2023-03-01T07:15:21;42.78;;;22.60;;
21639;SDS011;10981;45.462;10.974;2023-03-01T07:17:49;42.00;;;22.33;;
21639;SDS011;10981;45.462;10.974;2023-03-01T07:20:17;47.88;;;22.60;;
21639;SDS011;10981;45.462;10.974;2023-03-01T07:22:45;40.15;;;22.00;;
21639;SDS011;10981;45.462;10.974;2023-03-01T07:25:13;42.72;;;21.35;;
21639;SDS011;10981;45.462;10.974;2023-03-01T07:27:41;39.63;;;22.13;;
21639;SDS011;10981;45.462;10.974;2023-03-01T07:30:09;49.80;;;22.85;;
21639;SDS011;10981;45.462;10.974;2023-03-01T07:32:37;40.88;;;21.70;;
21639;SDS011;10981;45.462;10.974;2023-03-01T07:35:05;38.10;;;19.25;;
21639;SDS011;10981;45.462;10.974;2023-03-01T07:37:33;41.63;;;21.10;;
21639;SDS011;10981;45.462;10.974;2023-03-01T07:40:01;45.80;;;23.15;;
21639;SDS011;10981;45.462;10.974;2023-03-01T07:42:29;39.83;;;21.75;;
21639;SDS011;10981;45.462;10.974;2023-03-01T07:44:57;43.30;;;23.00;;
21639;SDS011;10981;45.462;10.974;2023-03-01T07:47:25;42.47;;;22.20;;
21639;SDS011;10981;45.462;10.974;2023-03-01T07:49:53;49.50;;;24.65;;
21639;SDS011;10981;45.462;10.974;2023-03-01T07:52:21;46.30;;;22.65;;
21639;SDS011;10981;45.462;10.974;2023-03-01T07:54:48;47.33;;;22.02;;
21639;SDS011;10981;45.462;10.974;2023-03-01T07:57:16;42.58;;;22.58;;
21639;SDS011;10981;45.462;10.974;2023-03-01T07:59:44;45.50;;;23.98;;
21639;SDS011;10981;45.462;10.974;2023-03-01T08:02:12;44.83;;;21.92;;
21639;SDS011;10981;45.462;10.974;2023-03-01T08:04:42;44.50;;;22.40;;
21639;SDS011;10981;45.462;10.974;2023-03-01T08:07:09;47.47;;;23.95;;
21639;SDS011;10981;45.462;10.974;2023-03-01T08:09:37;47.67;;;22.73;;
21639;SDS011;10981;45.462;10.974;2023-03-01T08:12:05;42.58;;;22.08;;
21639;SDS011;10981;45.462;10.974;2023-03-01T08:14:33;41.03;;;21.20;;
21639;SDS011;10981;45.462;10.974;2023-03-01T08:17:01;50.45;;;20.67;;
21639;SDS011;10981;45.462;10.974;2023-03-01T08:19:30;41.88;;;20.63;;
21639;SDS011;10981;45.462;10.974;2023-03-01T08:21:58;39.42;;;20.25;;
21639;SDS011;10981;45.462;10.974;2023-03-01T08:24:26;41.72;;;21.27;;
21639;SDS011;10981;45.462;10.974;2023-03-01T08:26:55;42.60;;;21.15;;
21639;SDS011;10981;45.462;10.974;2023-03-01T08:29:22;40.35;;;21.45;;
21639;SDS011;10981;45.462;10.974;2023-03-01T08:31:51;41.25;;;21.90;;
21639;SDS011;10981;45.462;10.974;2023-03-01T08:34:19;44.50;;;20.60;;
21639;SDS011;10981;45.462;10.974;2023-03-01T08:36:47;38.83;;;20.25;;
21639;SDS011;10981;45.462;10.974;2023-03-01T08:39:17;36.72;;;20.55;;
21639;SDS011;10981;45.462;10.974;2023-03-01T08:41:46;37.75;;;20.00;;
21639;SDS011;10981;45.462;10.974;2023-03-01T08:44:14;37.05;;;20.15;;
21639;SDS011;10981;45.462;10.974;2023-03-01T08:46:47;39.92;;;20.52;;
21639;SDS011;10981;45.462;10.974;2023-03-01T08:49:17;34.92;;;18.70;;
21639;SDS011;10981;45.462;10.974;2023-03-01T08:51:46;38.53;;;20.23;;
21639;SDS011;10981;45.462;10.974;2023-03-01T08:54:19;35.15;;;18.58;;
21639;SDS011;10981;45.462;10.974;2023-03-01T08:56:47;38.90;;;18.55;;
21639;SDS011;10981;45.462;10.974;2023-03-01T08:59:15;35.50;;;18.85;;
21639;SDS011;10981;45.462;10.974;2023-03-01T09:01:44;35.20;;;17.75;;
21639;SDS011;10981;45.462;10.974;2023-03-01T09:04:12;32.20;;;16.55;;
21639;SDS011;10981;45.462;10.974;2023-03-01T09:06:40;31.40;;;17.17;;
21639;SDS011;10981;45.462;10.974;2023-03-01T09:09:15;28.02;;;15.85;;
21639;SDS011;10981;45.462;10.974;2023-03-01T09:11:44;38.55;;;17.27;;
21639;SDS011;10981;45.462;10.974;2023-03-01T09:14:16;31.67;;;16.83;;
21639;SDS011;10981;45.462;10.974;2023-03-01T09:16:44;33.92;;;17.30;;
21639;SDS011;10981;45.462;10.974;2023-03-01T09:19:13;31.75;;;17.10;;
21639;SDS011;10981;45.462;10.974;2023-03-01T09:21:41;32.78;;;16.33;;
21639;SDS011;10981;45.462;10.974;2023-03-01T09:24:19;30.88;;;16.45;;
21639;SDS011;10981;45.462;10.974;2023-03-01T09:26:48;34.28;;;15.90;;
21639;SDS011;10981;45.462;10.974;2023-03-01T09:29:17;28.27;;;14.45;;
21639;SDS011;10981;45.462;10.974;2023-03-01T09:31:45;26.67;;;15.18;;
21639;SDS011;10981;45.462;10.974;2023-03-01T09:34:13;30.23;;;16.10;;
21639;SDS011;10981;45.462;10.974;2023-03-01T09:36:42;33.97;;;17.60;;
21639;SDS011;10981;45.462;10.974;2023-03-01T09:39:10;40.85;;;21.38;;
21639;SDS011;10981;45.462;10.974;2023-03-01T09:44:20;39.42;;;20.00;;
21639;SDS011;10981;45.462;10.974;2023-03-01T09:46:48;39.10;;;20.98;;
21639;SDS011;10981;45.462;10.974;2023-03-01T09:49:19;37.40;;;20.95;;
21639;SDS011;10981;45.462;10.974;2023-03-01T09:51:53;38.63;;;20.52;;
21639;SDS011;10981;45.462;10.974;2023-03-01T09:54:22;35.45;;;19.38;;
21639;SDS011;10981;45.462;10.974;2023-03-01T09:56:56;36.75;;;19.67;;
21639;SDS011;10981;45.462;10.974;2023-03-01T09:59:30;35.72;;;18.45;;
21639;SDS011;10981;45.462;10.974;2023-03-01T10:02:04;36.83;;;20.10;;
21639;SDS011;10981;45.462;10.974;2023-03-01T10:04:45;34.70;;;21.13;;
21639;SDS011;10981;45.462;10.974;2023-03-01T10:07:21;39.55;;;21.45;;
21639;SDS011;10981;45.462;10.974;2023-03-01T10:09:53;39.85;;;20.67;;
21639;SDS011;10981;45.462;10.974;2023-03-01T10:12:22;35.13;;;19.58;;
21639;SDS011;10981;45.462;10.974;2023-03-01T10:15:05;40.90;;;21.70;;
21639;SDS011;10981;45.462;10.974;2023-03-01T10:17:47;41.78;;;21.05;;
21639;SDS011;10981;45.462;10.974;2023-03-01T10:20:21;37.45;;;21.50;;
21639;SDS011;10981;45.462;10.974;2023-03-01T10:22:49;39.55;;;22.73;;
21639;SDS011;10981;45.462;10.974;2023-03-01T10:25:24;36.75;;;20.80;;
21639;SDS011;10981;45.462;10.974;2023-03-01T10:27:59;44.08;;;21.48;;
21639;SDS011;10981;45.462;10.974;2023-03-01T10:30:34;40.75;;;21.95;;
21639;SDS011;10981;45.462;10.974;2023-03-01T10:33:09;38.10;;;21.17;;
21639;SDS011;10981;45.462;10.974;2023-03-01T10:35:41;42.90;;;21.20;;
21639;SDS011;10981;45.462;10.974;2023-03-01T10:38:10;41.05;;;21.48;;
21639;SDS011;10981;45.462;10.974;2023-03-01T10:43:21;41.55;;;21.10;;
21639;SDS011;10981;45.462;10.974;2023-03-01T10:45:49;36.97;;;19.73;;
21639;SDS011;10981;45.462;10.974;2023-03-01T10:48:19;40.30;;;21.50;;
21639;SDS011;10981;45.462;10.974;2023-03-01T10:50:51;46.85;;;22.05;;
21639;SDS011;10981;45.462;10.974;2023-03-01T10:53:33;44.05;;;23.38;;
21639;SDS011;10981;45.462;10.974;2023-03-01T10:56:03;38.60;;;21.85;;
21639;SDS011;10981;45.462;10.974;2023-03-01T10:58:32;38.60;;;21.05;;
21639;SDS011;10981;45.462;10.974;2023-03-01T11:01:02;39.45;;;20.48;;
21639;SDS011;10981;45.462;10.974;2023-03-01T11:03:31;39.17;;;20.88;;
21639;SDS011;10981;45.462;10.974;2023-03-01T11:08:46;41.40;;;23.08;;
21639;SDS011;10981;45.462;10.974;2023-03-01T11:11:17;40.55;;;21.77;;
21639;SDS011;10981;45.462;10.974;2023-03-01T11:16:27;37.47;;;20.02;;
21639;SDS011;10981;45.462;10.974;2023-03-01T11:19:00;34.85;;;19.02;;
21639;SDS011;10981;45.462;10.974;2023-03-01T11:21:29;39.03;;;19.35;;
21639;SDS011;10981;45.462;10.974;2023-03-01T11:23:59;36.70;;;19.10;;
21639;SDS011;10981;45.462;10.974;2023-03-01T11:26:28;37.50;;;19.83;;
21639;SDS011;10981;45.462;10.974;2023-03-01T11:28:58;42.63;;;19.27;;
21639;SDS011;10981;45.462;10.974;2023-03-01T11:31:28;34.88;;;17.85;;
21639;SDS011;10981;45.462;10.974;2023-03-01T11:33:58;34.65;;;17.10;;
21639;SDS011;10981;45.462;10.974;2023-03-01T11:39:25;33.72;;;16.85;;
21639;SDS011;10981;45.462;10.974;2023-03-01T11:41:50;32.58;;;15.80;;
21639;SDS011;10981;45.462;10.974;2023-03-01T11:44:22;30.60;;;18.13;;
21639;SDS011;10981;45.462;10.974;2023-03-01T11:57:30;34.90;;;18.13;;
21639;SDS011;10981;45.462;10.974;2023-03-01T12:00:15;40.33;;;18.10;;
21639;SDS011;10981;45.462;10.974;2023-03-01T12:05:41;35.75;;;18.38;;
21639;SDS011;10981;45.462;10.974;2023-03-01T12:08:33;30.95;;;17.10;;
21639;SDS011;10981;45.462;10.974;2023-03-01T12:11:07;36.65;;;18.30;;
21639;SDS011;10981;45.462;10.974;2023-03-01T12:18:43;31.13;;;15.63;;
21639;SDS011;10981;45.462;10.974;2023-03-01T12:21:48;26.85;;;14.70;;
21639;SDS011;10981;45.462;10.974;2023-03-01T12:24:15;23.30;;;13.40;;
21639;SDS011;10981;45.462;10.974;2023-03-01T12:27:04;24.67;;;13.32;;
21639;SDS011;10981;45.462;10.974;2023-03-01T12:29:43;23.10;;;12.73;;
21639;SDS011;10981;45.462;10.974;2023-03-01T12:32:22;22.00;;;11.50;;
21639;SDS011;10981;45.462;10.974;2023-03-01T12:37:44;15.43;;;8.52;;
21639;SDS011;10981;45.462;10.974;2023-03-01T12:42:51;13.20;;;7.05;;
21639;SDS011;10981;45.462;10.974;2023-03-01T12:45:32;16.50;;;7.95;;
21639;SDS011;10981;45.462;10.974;2023-03-01T12:53:37;11.80;;;6.60;;
21639;SDS011;10981;45.462;10.974;2023-03-01T12:56:07;11.65;;;6.22;;
21639;SDS011;10981;45.462;10.974;2023-03-01T12:58:41;13.80;;;7.07;;
21639;SDS011;10981;45.462;10.974;2023-03-01T13:01:33;12.23;;;7.22;;
21639;SDS011;10981;45.462;10.974;2023-03-01T13:04:07;15.63;;;7.07;;
21639;SDS011;10981;45.462;10.974;2023-03-01T13:06:50;14.73;;;7.03;;
21639;SDS011;10981;45.462;10.974;2023-03-01T13:14:57;10.45;;;7.07;;
21639;SDS011;10981;45.462;10.974;2023-03-01T13:17:32;14.10;;;7.57;;
21639;SDS011;10981;45.462;10.974;2023-03-01T13:20:00;18.02;;;6.70;;
21639;SDS011;10981;45.462;10.974;2023-03-01T13:22:31;15.35;;;6.60;;
21639;SDS011;10981;45.462;10.974;2023-03-01T13:25:17;12.55;;;6.30;;
21639;SDS011;10981;45.462;10.974;2023-03-01T13:27:46;12.02;;;5.55;;
21639;SDS011;10981;45.462;10.974;2023-03-01T13:30:37;10.95;;;6.13;;
21639;SDS011;10981;45.462;10.974;2023-03-01T13:35:53;12.90;;;5.60;;
21639;SDS011;10981;45.462;10.974;2023-03-01T13:41:07;19.27;;;7.18;;
21639;SDS011;10981;45.462;10.974;2023-03-01T13:43:36;19.17;;;5.93;;
21639;SDS011;10981;45.462;10.974;2023-03-01T13:46:08;17.65;;;5.97;;
21639;SDS011;10981;45.462;10.974;2023-03-01T13:51:09;15.52;;;5.57;;
21639;SDS011;10981;45.462;10.974;2023-03-01T13:53:42;9.05;;;4.78;;
21639;SDS011;10981;45.462;10.974;2023-03-01T13:56:19;12.75;;;5.35;;
21639;SDS011;10981;45.462;10.974;2023-03-01T13:58:49;14.80;;;5.40;;
21639;SDS011;10981;45.462;10.974;2023-03-01T14:01:21;21.25;;;5.32;;
21639;SDS011;10981;45.462;10.974;2023-03-01T14:03:50;13.55;;;6.03;;
21639;SDS011;10981;45.462;10.974;2023-03-01T14:06:21;11.18;;;5.55;;
21639;SDS011;10981;45.462;10.974;2023-03-01T14:08:50;15.05;;;5.88;;
21639;SDS011;10981;45.462;10.974;2023-03-01T14:11:30;14.13;;;6.00;;
21639;SDS011;10981;45.462;10.974;2023-03-01T14:14:07;14.90;;;6.03;;
21639;SDS011;10981;45.462;10.974;2023-03-01T14:17:00;15.65;;;5.55;;
21639;SDS011;10981;45.462;10.974;2023-03-01T14:19:30;14.93;;;6.07;;
21639;SDS011;10981;45.462;10.974;2023-03-01T14:24:40;17.42;;;6.15;;
21639;SDS011;10981;45.462;10.974;2023-03-01T14:27:12;9.35;;;5.38;;
21639;SDS011;10981;45.462;10.974;2023-03-01T14:29:41;17.10;;;6.00;;
21639;SDS011;10981;45.462;10.974;2023-03-01T14:32:18;12.30;;;5.50;;
21639;SDS011;10981;45.462;10.974;2023-03-01T14:34:48;15.38;;;6.32;;
21639;SDS011;10981;45.462;10.974;2023-03-01T14:39:51;16.60;;;6.57;;
21639;SDS011;10981;45.462;10.974;2023-03-01T14:42:22;14.73;;;7.10;;
21639;SDS011;10981;45.462;10.974;2023-03-01T14:44:51;12.70;;;6.10;;
21639;SDS011;10981;45.462;10.974;2023-03-01T14:47:25;11.02;;;6.28;;
21639;SDS011;10981;45.462;10.974;2023-03-01T14:50:05;10.80;;;5.95;;
21639;SDS011;10981;45.462;10.974;2023-03-01T14:52:35;14.85;;;6.70;;
21639;SDS011;10981;45.462;10.974;2023-03-01T14:55:07;15.48;;;6.80;;
21639;SDS011;10981;45.462;10.974;2023-03-01T14:57:42;16.90;;;7.05;;
21639;SDS011;10981;45.462;10.974;2023-03-01T15:00:13;9.23;;;5.82;;
21639;SDS011;10981;45.462;10.974;2023-03-01T15:02:43;13.32;;;5.40;;
21639;SDS011;10981;45.462;10.974;2023-03-01T15:05:13;16.27;;;7.03;;
21639;SDS011;10981;45.462;10.974;2023-03-01T15:07:41;15.70;;;6.50;;
21639;SDS011;10981;45.462;10.974;2023-03-01T15:10:19;15.88;;;7.20;;
21639;SDS011;10981;45.462;10.974;2023-03-01T15:12:48;14.35;;;6.50;;
21639;SDS011;10981;45.462;10.974;2023-03-01T15:15:20;15.80;;;6.18;;
21639;SDS011;10981;45.462;10.974;2023-03-01T15:17:50;13.93;;;6.30;;
21639;SDS011;10981;45.462;10.974;2023-03-01T15:22:52;9.70;;;5.03;;
21639;SDS011;10981;45.462;10.974;2023-03-01T15:25:21;15.07;;;6.82;;
21639;SDS011;10981;45.462;10.974;2023-03-01T15:27:51;15.45;;;7.85;;
21639;SDS011;10981;45.462;10.974;2023-03-01T15:30:26;10.88;;;5.82;;
21639;SDS011;10981;45.462;10.974;2023-03-01T15:35:50;14.85;;;5.15;;
21639;SDS011;10981;45.462;10.974;2023-03-01T15:40:55;15.50;;;5.70;;
21639;SDS011;10981;45.462;10.974;2023-03-01T15:43:37;13.82;;;6.22;;
21639;SDS011;10981;45.462;10.974;2023-03-01T15:46:05;17.65;;;7.50;;
21639;SDS011;10981;45.462;10.974;2023-03-01T15:48:33;17.23;;;7.00;;
21639;SDS011;10981;45.462;10.974;2023-03-01T15:51:00;16.27;;;5.90;;